createdAt,value
2019-04-22T00:00:32.813Z,55.14
2019-04-22T00:01:01.301Z,55.41
2019-04-22T00:01:35.031Z,55.76
2019-04-22T00:02:11.095Z,56.08
2019-04-22T00:02:47.295Z,56.38
2019-04-22T00:03:15.197Z,56.73
2019-04-22T00:03:53.221Z,56.98
2019-04-22T00:04:32.194Z,57.31
2019-04-22T00:05:04.808Z,57.67
2019-04-22T00:05:46.925Z,57.99
2019-04-22T00:06:19.512Z,58.23
2019-04-22T00:06:57.494Z,58.51
2019-04-22T00:07:28.419Z,58.86
2019-04-22T00:08:06.847Z,59.17
2019-04-22T00:08:36.119Z,59.43
2019-04-22T00:09:15.975Z,59.77
2019-04-22T00:09:45.690Z,60.04
2019-04-22T00:10:21.191Z,60.30
2019-04-22T00:10:54.217Z,60.61
2019-04-22T00:11:40.184Z,60.73
2019-04-22T00:11:58.949Z,60.99
2019-04-22T00:12:34.866Z,61.40
2019-04-22T00:13:06.696Z,61.57
2019-04-22T00:13:46.894Z,61.81
2019-04-22T00:14:06.716Z,62.06
2019-04-22T00:14:40.720Z,62.30
2019-04-22T00:15:18.111Z,62.46
2019-04-22T00:15:47.777Z,63.06
2019-04-22T00:16:35.402Z,63.69
2019-04-22T00:17:13.719Z,63.90
2019-04-22T00:17:40.139Z,63.45
2019-04-22T00:18:22.276Z,62.60
2019-04-22T00:18:54.890Z,61.54
2019-04-22T00:19:24.312Z,60.52
2019-04-22T00:19:53.778Z,59.51
2019-04-22T00:20:35.277Z,58.16
2019-04-22T00:20:54.444Z,56.64
2019-04-22T00:22:03.009Z,55.40
2019-04-22T00:22:33.342Z,55.23
2019-04-22T00:23:09.820Z,55.29
2019-04-22T00:23:43.472Z,55.41
2019-04-22T00:24:12.435Z,55.67
2019-04-22T00:24:47.822Z,56.00
2019-04-22T00:25:19.351Z,56.44
2019-04-22T00:25:55.847Z,56.76
2019-04-22T00:26:31.162Z,56.97
2019-04-22T00:26:59.585Z,57.33
2019-04-22T00:27:33.918Z,57.72
2019-04-22T00:28:08.512Z,58.11
2019-04-22T00:28:40.381Z,58.39
2019-04-22T00:29:26.994Z,58.74
2019-04-22T00:30:05.338Z,58.93
2019-04-22T00:30:16.582Z,59.34
2019-04-22T00:30:48.590Z,59.51
2019-04-22T00:31:36.691Z,59.86
2019-04-22T00:32:11.406Z,59.93
2019-04-22T00:32:51.295Z,60.39
2019-04-22T00:33:26.822Z,60.63
2019-04-22T00:33:58.892Z,61.07
2019-04-22T00:34:33.861Z,61.35
2019-04-22T00:35:13.349Z,61.58
2019-04-22T00:35:41.621Z,61.90
2019-04-22T00:36:24.000Z,62.11
2019-04-22T00:36:48.322Z,62.37
2019-04-22T00:37:28.519Z,63.04
2019-04-22T00:38:03.446Z,63.73
2019-04-22T00:38:42.065Z,63.95
2019-04-22T00:39:07.180Z,63.78
2019-04-22T00:39:42.644Z,63.03
2019-04-22T00:40:14.851Z,62.14
2019-04-22T00:40:44.736Z,61.07
2019-04-22T00:41:21.031Z,59.92
2019-04-22T00:41:57.171Z,58.84
2019-04-22T00:42:28.925Z,57.27
2019-04-22T00:42:58.796Z,56.01
2019-04-22T00:43:35.566Z,55.25
2019-04-22T00:44:13.817Z,54.91
2019-04-22T00:44:40.302Z,54.75
2019-04-22T00:45:11.645Z,54.79
2019-04-22T00:45:44.739Z,54.99
2019-04-22T00:46:23.856Z,55.27
2019-04-22T00:46:54.146Z,55.58
2019-04-22T00:47:27.840Z,56.03
2019-04-22T00:48:02.426Z,56.32
2019-04-22T00:48:38.352Z,56.61
2019-04-22T00:49:52.709Z,56.82
2019-04-22T00:50:09.259Z,57.00
2019-04-22T00:50:19.267Z,57.29
2019-04-22T00:50:46.677Z,57.46
2019-04-22T00:51:33.789Z,57.84
2019-04-22T00:52:25.168Z,58.31
2019-04-22T00:53:03.872Z,58.68
2019-04-22T00:53:30.079Z,58.86
2019-04-22T00:54:00.789Z,59.18
2019-04-22T00:54:41.582Z,59.36
2019-04-22T00:55:11.972Z,59.55
2019-04-22T00:56:07.933Z,59.63
2019-04-22T00:56:32.627Z,59.64
2019-04-22T00:57:08.737Z,60.12
2019-04-22T00:57:38.879Z,60.31
2019-04-22T00:58:22.755Z,60.61
2019-04-22T00:58:46.810Z,60.87
2019-04-22T00:59:23.767Z,61.08
2019-04-22T00:59:57.256Z,61.47
2019-04-22T01:00:31.314Z,61.71
2019-04-22T01:01:12.498Z,61.96
2019-04-22T01:01:36.971Z,62.58
2019-04-22T01:02:15.270Z,63.49
2019-04-22T01:02:48.037Z,64.13
2019-04-22T01:03:24.077Z,64.32
2019-04-22T01:03:56.649Z,64.13
2019-04-22T01:05:04.018Z,62.37
2019-04-22T01:05:38.748Z,61.32
2019-04-22T01:06:09.755Z,60.27
2019-04-22T01:06:38.480Z,59.02
2019-04-22T01:07:13.059Z,57.67
2019-04-22T01:07:45.096Z,56.22
2019-04-22T01:08:21.139Z,55.30
2019-04-22T01:09:28.176Z,54.95
2019-04-22T01:10:34.085Z,55.16
2019-04-22T01:11:13.010Z,55.41
2019-04-22T01:11:41.966Z,55.74
2019-04-22T01:12:13.901Z,56.15
2019-04-22T01:12:44.076Z,56.49
2019-04-22T01:13:21.641Z,56.99
2019-04-22T01:13:55.286Z,57.33
2019-04-22T01:14:29.739Z,57.72
2019-04-22T01:15:01.107Z,58.01
2019-04-22T01:15:35.443Z,58.30
2019-04-22T01:16:12.084Z,58.69
2019-04-22T01:16:43.027Z,58.97
2019-04-22T01:17:12.108Z,59.35
2019-04-22T01:17:49.480Z,59.62
2019-04-22T01:18:15.804Z,59.89
2019-04-22T01:18:55.637Z,60.30
2019-04-22T01:19:35.069Z,60.62
2019-04-22T01:21:42.132Z,61.58
2019-04-22T01:22:13.438Z,61.71
2019-04-22T01:22:38.361Z,61.88
2019-04-22T01:23:19.759Z,61.99
2019-04-22T01:23:49.096Z,62.23
2019-04-22T01:24:22.216Z,62.64
2019-04-22T01:24:56.352Z,63.29
2019-04-22T01:25:26.312Z,63.92
2019-04-22T01:25:56.954Z,63.95
2019-04-22T01:26:29.982Z,63.50
2019-04-22T01:27:06.411Z,62.75
2019-04-22T01:27:36.630Z,61.89
2019-04-22T01:28:06.378Z,60.74
2019-04-22T01:28:39.558Z,59.77
2019-04-22T01:29:12.253Z,58.24
2019-04-22T01:29:46.373Z,56.62
2019-04-22T01:30:20.051Z,55.61
2019-04-22T01:30:48.178Z,55.20
2019-04-22T01:31:18.165Z,55.10
2019-04-22T01:31:47.374Z,55.18
2019-04-22T01:32:26.315Z,55.41
2019-04-22T01:32:54.304Z,55.77
2019-04-22T01:33:31.105Z,56.04
2019-04-22T01:34:10.283Z,56.34
2019-04-22T01:34:49.307Z,56.71
2019-04-22T01:35:17.955Z,57.20
2019-04-22T01:35:58.244Z,57.49
2019-04-22T01:36:33.719Z,57.70
2019-04-22T01:37:03.568Z,57.95
2019-04-22T01:37:34.527Z,58.16
2019-04-22T01:38:07.969Z,58.48
2019-04-22T01:38:56.302Z,58.88
2019-04-22T01:39:23.393Z,59.09
2019-04-22T01:39:56.953Z,59.40
2019-04-22T01:40:31.513Z,59.66
2019-04-22T01:41:07.186Z,60.08
2019-04-22T01:41:42.405Z,60.45
2019-04-22T01:42:24.423Z,60.69
2019-04-22T01:42:50.451Z,61.05
2019-04-22T01:43:16.880Z,61.29
2019-04-22T01:44:00.703Z,61.63
2019-04-22T01:44:29.466Z,62.02
2019-04-22T01:44:50.546Z,62.21
2019-04-22T01:45:38.336Z,62.67
2019-04-22T01:46:12.686Z,63.63
2019-04-22T01:47:10.155Z,64.47
2019-04-22T01:47:43.940Z,64.07
2019-04-22T01:48:19.671Z,63.34
2019-04-22T01:48:57.470Z,62.15
2019-04-22T01:49:27.502Z,61.06
2019-04-22T01:50:03.877Z,59.89
2019-04-22T01:50:32.103Z,58.82
2019-04-22T01:51:00.740Z,57.05
2019-04-22T01:51:45.497Z,55.57
2019-04-22T01:52:11.407Z,54.97
2019-04-22T01:52:47.365Z,54.72
2019-04-22T01:53:21.373Z,54.59
2019-04-22T01:53:53.095Z,54.66
2019-04-22T01:54:29.836Z,54.98
2019-04-22T01:54:54.655Z,55.26
2019-04-22T01:55:31.090Z,55.53
2019-04-22T01:56:06.111Z,55.86
2019-04-22T01:57:03.383Z,56.68
2019-04-22T01:57:41.939Z,56.93
2019-04-22T01:58:10.955Z,57.23
2019-04-22T01:58:38.478Z,57.69
2019-04-22T01:59:15.797Z,58.11
2019-04-22T01:59:45.741Z,58.46
2019-04-22T02:00:27.244Z,58.71
2019-04-22T02:01:08.926Z,59.16
2019-04-22T02:01:41.599Z,59.69
2019-04-22T02:02:09.897Z,60.28
2019-04-22T02:02:42.838Z,60.74
2019-04-22T02:03:17.688Z,61.16
2019-04-22T02:03:54.674Z,61.61
2019-04-22T02:04:29.768Z,61.92
2019-04-22T02:05:01.218Z,62.44
2019-04-22T02:05:30.100Z,63.30
2019-04-22T02:06:09.034Z,64.21
2019-04-22T02:06:35.166Z,64.46
2019-04-22T02:07:10.791Z,64.33
2019-04-22T02:07:43.661Z,63.70
2019-04-22T02:08:25.100Z,62.89
2019-04-22T02:08:53.328Z,61.90
2019-04-22T02:09:41.273Z,60.86
2019-04-22T02:09:55.556Z,59.73
2019-04-22T02:10:34.552Z,58.57
2019-04-22T02:11:00.999Z,57.47
2019-04-22T02:11:41.309Z,56.22
2019-04-22T02:12:17.693Z,55.63
2019-04-22T02:12:42.877Z,55.37
2019-04-22T02:13:15.643Z,55.46
2019-04-22T02:13:49.361Z,55.62
2019-04-22T02:14:26.978Z,55.93
2019-04-22T02:14:52.256Z,56.24
2019-04-22T02:15:36.030Z,56.66
2019-04-22T02:16:05.716Z,57.17
2019-04-22T02:16:34.613Z,57.62
2019-04-22T02:17:09.240Z,58.15
2019-04-22T02:18:18.566Z,58.98
2019-04-22T02:18:58.444Z,59.33
2019-04-22T02:19:22.730Z,59.73
2019-04-22T02:20:28.092Z,60.44
2019-04-22T02:20:54.549Z,60.97
2019-04-22T02:21:28.590Z,61.37
2019-04-22T02:22:00.900Z,61.67
2019-04-22T02:23:30.522Z,61.95
2019-04-22T02:24:28.260Z,62.96
2019-04-22T02:24:54.269Z,63.80
2019-04-22T02:25:34.649Z,64.69
2019-04-22T02:26:40.463Z,64.61
2019-04-22T02:27:13.972Z,63.62
2019-04-22T02:27:51.473Z,62.72
2019-04-22T02:28:26.048Z,61.73
2019-04-22T02:28:52.362Z,60.70
2019-04-22T02:29:27.050Z,59.60
2019-04-22T02:29:51.966Z,58.11
2019-04-22T02:30:42.170Z,56.80
2019-04-22T02:31:45.374Z,55.63
2019-04-22T02:32:21.595Z,55.58
2019-04-22T02:33:03.776Z,55.65
2019-04-22T02:34:09.329Z,56.32
2019-04-22T02:35:03.956Z,57.23
2019-04-22T02:35:55.101Z,57.55
2019-04-22T02:37:45.979Z,59.50
2019-04-22T02:38:35.747Z,59.87
2019-04-22T02:39:26.050Z,60.54
2019-04-22T02:40:03.676Z,61.05
2019-04-22T02:40:46.064Z,61.54
2019-04-22T02:41:22.429Z,61.86
2019-04-22T02:42:14.323Z,62.65
2019-04-22T02:42:51.873Z,63.42
2019-04-22T02:43:34.164Z,64.28
2019-04-22T02:44:01.702Z,64.63
2019-04-22T02:44:55.922Z,63.57
2019-04-22T02:45:41.813Z,62.71
2019-04-22T02:46:39.723Z,61.75
2019-04-22T02:47:42.269Z,58.35
2019-04-22T02:48:35.805Z,57.11
2019-04-22T02:49:25.249Z,55.90
2019-04-22T02:50:02.452Z,55.85
2019-04-22T02:50:28.656Z,55.95
2019-04-22T02:51:12.601Z,56.28
2019-04-22T02:51:32.645Z,56.66
2019-04-22T02:52:20.419Z,57.07
2019-04-22T02:53:29.730Z,57.84
2019-04-22T02:55:32.278Z,59.80
2019-04-22T02:56:19.976Z,60.02
2019-04-22T02:56:39.883Z,60.42
2019-04-22T02:57:12.219Z,60.81
2019-04-22T02:58:35.327Z,61.82
2019-04-22T03:00:01.475Z,63.27
2019-04-22T03:00:35.392Z,64.24
2019-04-22T03:01:05.309Z,64.49
2019-04-22T03:01:39.628Z,64.20
2019-04-22T03:02:10.322Z,63.56
2019-04-22T03:02:50.626Z,62.88
2019-04-22T03:04:06.964Z,60.77
2019-04-22T03:04:31.132Z,59.74
2019-04-22T03:04:57.805Z,58.97
2019-04-22T03:05:56.708Z,57.38
2019-04-22T03:06:56.020Z,55.31
2019-04-22T03:07:40.943Z,55.46
2019-04-22T03:08:14.880Z,55.77
2019-04-22T03:08:47.415Z,56.15
2019-04-22T03:09:20.652Z,56.57
2019-04-22T03:10:29.515Z,57.76
2019-04-22T03:11:04.094Z,58.28
2019-04-22T03:11:34.035Z,58.83
2019-04-22T03:12:09.622Z,59.33
2019-04-22T03:13:21.709Z,60.25
2019-04-22T03:14:30.364Z,61.13
2019-04-22T03:15:06.538Z,61.67
2019-04-22T03:15:21.987Z,62.06
2019-04-22T03:17:03.544Z,64.09
2019-04-22T03:18:20.038Z,64.14
2019-04-22T03:18:53.713Z,63.61
2019-04-22T03:20:22.089Z,60.87
2019-04-22T03:21:00.103Z,59.99
2019-04-22T03:21:27.613Z,59.16
2019-04-22T03:22:00.576Z,57.72
2019-04-22T03:22:34.392Z,56.58
2019-04-22T03:23:16.846Z,55.82
2019-04-22T03:24:26.137Z,55.82
2019-04-22T03:25:12.488Z,56.02
2019-04-22T03:26:34.100Z,57.13
2019-04-22T03:26:59.102Z,57.80
2019-04-22T03:27:31.793Z,58.37
2019-04-22T03:28:05.118Z,58.73
2019-04-22T03:28:49.722Z,59.16
2019-04-22T03:29:11.168Z,59.57
2019-04-22T03:33:06.503Z,62.17
2019-04-22T03:33:26.125Z,62.62
2019-04-22T03:34:15.356Z,63.27
2019-04-22T03:35:16.143Z,64.17
2019-04-22T03:36:12.761Z,63.68
2019-04-22T03:37:06.718Z,62.72
2019-04-22T03:38:07.279Z,60.05
2019-04-22T03:39:07.984Z,59.15
2019-04-22T03:39:37.782Z,57.68
2019-04-22T03:40:46.676Z,55.69
2019-04-22T03:41:05.584Z,55.55
2019-04-22T03:41:54.476Z,55.66
2019-04-22T03:42:07.857Z,55.87
2019-04-22T03:42:52.256Z,56.32
2019-04-22T03:43:13.744Z,56.76
2019-04-22T03:44:04.448Z,57.23
2019-04-22T03:45:02.805Z,58.26
2019-04-22T03:45:32.000Z,58.64
2019-04-22T03:45:58.792Z,59.23
2019-04-22T03:46:41.959Z,59.64
2019-04-22T03:47:43.573Z,60.51
2019-04-22T03:48:07.651Z,61.04
2019-04-22T03:48:51.167Z,61.45
2019-04-22T03:50:05.535Z,62.31
2019-04-22T03:51:09.263Z,63.39
2019-04-22T03:51:47.290Z,64.35
2019-04-22T03:52:11.545Z,64.82
2019-04-22T03:52:27.855Z,64.52
2019-04-22T03:53:55.476Z,63.49
2019-04-22T03:54:29.753Z,62.54
2019-04-22T03:55:00.702Z,61.63
2019-04-22T03:55:23.120Z,60.62
2019-04-22T03:56:49.612Z,59.69
2019-04-22T03:57:48.828Z,56.36
2019-04-22T03:57:57.009Z,55.96
2019-04-22T03:58:51.202Z,55.92
2019-04-22T04:00:55.548Z,57.35
2019-04-22T04:01:36.955Z,58.00
2019-04-22T04:03:07.034Z,59.33
2019-04-22T04:03:57.801Z,59.80
2019-04-22T04:04:28.097Z,60.37
2019-04-22T04:04:47.479Z,60.93
2019-04-22T04:05:33.531Z,61.48
2019-04-22T04:06:05.213Z,62.10
2019-04-22T04:06:43.382Z,62.61
2019-04-22T04:07:15.152Z,63.32
2019-04-22T04:09:49.875Z,62.92
2019-04-22T04:10:30.000Z,61.88
2019-04-22T04:11:38.383Z,59.84
2019-04-22T04:12:42.030Z,57.49
2019-04-22T04:13:08.338Z,56.37
2019-04-22T04:13:41.459Z,55.59
2019-04-22T04:14:18.205Z,55.40
2019-04-22T04:14:53.978Z,55.45
2019-04-22T04:15:48.492Z,56.01
2019-04-22T04:16:35.263Z,56.40
2019-04-22T04:17:02.150Z,56.83
2019-04-22T04:17:39.820Z,57.31
2019-04-22T04:18:47.338Z,58.13
2019-04-22T04:19:30.797Z,58.61
2019-04-22T04:19:58.655Z,59.13
2019-04-22T04:21:00.691Z,59.86
2019-04-22T04:21:37.614Z,60.33
2019-04-22T04:22:00.683Z,60.59
2019-04-22T04:23:58.081Z,61.99
2019-04-22T04:24:31.939Z,62.34
2019-04-22T04:26:39.387Z,63.99
2019-04-22T04:28:26.986Z,61.67
2019-04-22T04:29:26.323Z,59.79
2019-04-22T04:30:23.269Z,57.43
2019-04-22T04:30:48.656Z,56.20
2019-04-22T04:32:08.402Z,55.33
2019-04-22T04:33:38.149Z,55.81
2019-04-22T04:34:16.889Z,56.24
2019-04-22T04:35:26.968Z,57.08
2019-04-22T04:35:54.842Z,57.53
2019-04-22T04:37:07.395Z,58.51
2019-04-22T04:37:42.458Z,58.84
2019-04-22T04:37:56.076Z,59.25
2019-04-22T04:38:39.000Z,59.73
2019-04-22T04:39:07.368Z,60.20
2019-04-22T04:39:51.144Z,60.61
2019-04-22T04:40:20.768Z,60.98
2019-04-22T04:41:26.480Z,61.82
2019-04-22T04:43:40.587Z,64.05
2019-04-22T04:45:10.964Z,63.98
2019-04-22T04:46:27.247Z,61.40
2019-04-22T04:46:59.002Z,60.41
2019-04-22T04:47:57.839Z,57.97
2019-04-22T04:48:44.741Z,56.51
2019-04-22T04:49:14.082Z,55.74
2019-04-22T04:50:35.875Z,55.25
2019-04-22T04:50:48.811Z,55.41
2019-04-22T04:51:30.993Z,55.73
2019-04-22T04:52:43.058Z,56.38
2019-04-22T04:53:10.006Z,56.77
2019-04-22T04:53:33.750Z,57.15
2019-04-22T04:54:13.201Z,57.59
2019-04-22T04:54:41.479Z,58.01
2019-04-22T04:56:20.485Z,59.10
2019-04-22T05:01:55.646Z,62.36
2019-04-22T05:02:33.113Z,62.58
2019-04-22T05:03:08.164Z,63.27
2019-04-22T05:03:39.730Z,64.03
2019-04-22T05:04:46.490Z,63.66
2019-04-22T05:05:12.558Z,63.00
2019-04-22T05:06:12.880Z,61.06
2019-04-22T05:06:52.139Z,59.84
2019-04-22T05:08:42.597Z,56.19
2019-04-22T05:09:11.743Z,55.47
2019-04-22T05:09:27.840Z,55.20
2019-04-22T05:10:53.616Z,55.35
2019-04-22T05:11:14.300Z,55.64
2019-04-22T05:12:56.782Z,56.78
2019-04-22T05:13:33.571Z,57.16
2019-04-22T05:15:11.233Z,58.37
2019-04-22T05:15:43.143Z,58.72
2019-04-22T05:16:26.555Z,59.12
2019-04-22T05:16:51.510Z,59.51
2019-04-22T05:17:18.397Z,59.81
2019-04-22T05:18:05.783Z,60.08
2019-04-22T05:18:24.046Z,60.49
2019-04-22T05:19:02.506Z,60.84
2019-04-22T05:20:06.142Z,61.49
2019-04-22T05:20:49.273Z,61.89
2019-04-22T05:21:40.705Z,62.61
2019-04-22T05:22:14.968Z,63.27
2019-04-22T05:22:59.474Z,64.00
2019-04-22T05:23:28.866Z,63.97
2019-04-22T05:23:55.097Z,63.66
2019-04-22T05:24:58.198Z,61.96
2019-04-22T05:25:26.975Z,61.02
2019-04-22T05:26:05.839Z,60.08
2019-04-22T05:26:44.819Z,59.03
2019-04-22T05:27:47.189Z,56.33
2019-04-22T05:28:16.462Z,55.55
2019-04-22T05:28:50.271Z,55.33
2019-04-22T05:29:26.665Z,55.30
2019-04-22T05:30:19.538Z,55.47
2019-04-22T05:30:32.629Z,55.75
2019-04-22T05:31:08.703Z,56.22
2019-04-22T05:31:38.892Z,56.66
2019-04-22T05:32:09.219Z,57.12
2019-04-22T05:32:44.344Z,57.57
2019-04-22T05:33:14.242Z,57.93
2019-04-22T05:33:48.353Z,58.37
2019-04-22T05:34:22.561Z,58.66
2019-04-22T05:34:52.797Z,59.22
2019-04-22T05:35:32.225Z,59.64
2019-04-22T05:36:07.413Z,60.02
2019-04-22T05:36:42.564Z,60.38
2019-04-22T05:37:14.775Z,60.83
2019-04-22T05:37:49.967Z,61.09
2019-04-22T05:38:58.257Z,61.69
2019-04-22T05:39:25.044Z,62.19
2019-04-22T05:40:06.606Z,62.48
2019-04-22T05:40:47.963Z,63.26
2019-04-22T05:41:02.356Z,63.85
2019-04-22T05:42:42.646Z,62.80
2019-04-22T05:43:16.210Z,61.96
2019-04-22T05:43:50.293Z,60.97
2019-04-22T05:44:22.717Z,59.84
2019-04-22T05:44:55.378Z,58.93
2019-04-22T05:45:33.061Z,57.78
2019-04-22T05:46:02.928Z,56.42
2019-04-22T05:46:45.970Z,55.84
2019-04-22T05:47:14.891Z,55.64
2019-04-22T05:47:47.048Z,55.67
2019-04-22T05:48:18.850Z,55.89
2019-04-22T05:48:54.257Z,56.16
2019-04-22T05:49:23.907Z,56.52
2019-04-22T05:49:55.168Z,56.99
2019-04-22T05:50:29.483Z,57.41
2019-04-22T05:51:04.558Z,57.90
2019-04-22T05:51:38.644Z,58.34
2019-04-22T05:52:09.630Z,58.72
2019-04-22T05:52:51.355Z,59.01
2019-04-22T05:53:31.211Z,59.42
2019-04-22T05:54:01.342Z,59.62
2019-04-22T05:54:32.991Z,59.84
2019-04-22T05:55:08.244Z,60.34
2019-04-22T05:55:41.982Z,60.64
2019-04-22T05:56:22.092Z,61.10
2019-04-22T05:56:51.712Z,61.32
2019-04-22T05:57:18.115Z,61.50
2019-04-22T05:57:51.042Z,61.83
2019-04-22T05:58:24.367Z,62.26
2019-04-22T05:59:34.421Z,63.28
2019-04-22T06:00:06.591Z,63.63
2019-04-22T06:01:51.551Z,62.98
2019-04-22T06:02:23.828Z,62.11
2019-04-22T06:03:20.887Z,59.97
2019-04-22T06:04:08.740Z,58.96
2019-04-22T06:04:29.516Z,57.79
2019-04-22T06:05:06.965Z,56.67
2019-04-22T06:05:38.571Z,56.12
2019-04-22T06:06:09.301Z,55.59
2019-04-22T06:06:35.366Z,55.86
2019-04-22T06:07:13.426Z,56.04
2019-04-22T06:07:45.623Z,56.34
2019-04-22T06:08:24.080Z,56.59
2019-04-22T06:08:57.572Z,56.89
2019-04-22T06:09:30.635Z,57.40
2019-04-22T06:10:08.253Z,57.52
2019-04-22T06:10:39.841Z,57.94
2019-04-22T06:11:16.855Z,58.40
2019-04-22T06:11:32.227Z,58.71
2019-04-22T06:12:12.297Z,58.90
2019-04-22T06:12:43.372Z,59.50
2019-04-22T06:13:18.015Z,59.91
2019-04-22T06:13:58.755Z,60.25
2019-04-22T06:14:31.083Z,60.64
2019-04-22T06:15:09.665Z,60.79
2019-04-22T06:15:52.912Z,60.96
2019-04-22T06:16:09.218Z,61.47
2019-04-22T06:17:24.723Z,62.09
2019-04-22T06:18:07.651Z,62.39
2019-04-22T06:18:27.221Z,63.03
2019-04-22T06:19:02.812Z,63.42
2019-04-22T06:19:34.881Z,64.18
2019-04-22T06:20:07.583Z,64.16
2019-04-22T06:20:50.339Z,63.57
2019-04-22T06:22:09.634Z,61.85
2019-04-22T06:22:31.972Z,60.71
2019-04-22T06:22:57.109Z,60.00
2019-04-22T06:23:34.673Z,58.62
2019-04-22T06:24:08.282Z,57.28
2019-04-22T06:24:38.962Z,56.19
2019-04-22T06:25:09.384Z,55.80
2019-04-22T06:26:21.974Z,55.47
2019-04-22T06:27:02.326Z,55.53
2019-04-22T06:27:30.932Z,55.64
2019-04-22T06:27:54.193Z,55.96
2019-04-22T06:28:38.340Z,56.28
2019-04-22T06:29:06.690Z,56.73
2019-04-22T06:29:31.623Z,56.85
2019-04-22T06:30:09.711Z,57.16
2019-04-22T06:30:42.602Z,57.69
2019-04-22T06:31:18.691Z,57.88
2019-04-22T06:32:15.294Z,58.11
2019-04-22T06:32:26.524Z,58.64
2019-04-22T06:32:53.901Z,58.72
2019-04-22T06:33:31.615Z,59.02
2019-04-22T06:34:05.696Z,59.10
2019-04-22T06:34:37.428Z,59.42
2019-04-22T06:35:18.335Z,59.68
2019-04-22T06:35:45.907Z,59.97
2019-04-22T06:36:17.982Z,60.40
2019-04-22T06:36:51.822Z,60.80
2019-04-22T06:38:18.922Z,61.53
2019-04-22T06:38:33.987Z,61.72
2019-04-22T06:39:01.697Z,62.04
2019-04-22T06:39:34.205Z,62.25
2019-04-22T06:40:10.585Z,62.48
2019-04-22T06:40:46.963Z,63.13
2019-04-22T06:41:13.733Z,63.56
2019-04-22T06:41:47.609Z,63.67
2019-04-22T06:42:21.769Z,63.05
2019-04-22T06:42:58.586Z,61.93
2019-04-22T06:43:29.627Z,61.11
2019-04-22T06:44:09.363Z,60.17
2019-04-22T06:45:15.236Z,57.86
2019-04-22T06:45:41.488Z,56.57
2019-04-22T06:46:14.418Z,55.80
2019-04-22T06:46:47.887Z,55.36
2019-04-22T06:47:27.322Z,55.36
2019-04-22T06:48:02.623Z,55.51
2019-04-22T06:48:27.953Z,55.78
2019-04-22T06:49:03.056Z,55.87
2019-04-22T06:50:07.672Z,56.35
2019-04-22T06:51:18.343Z,57.04
2019-04-22T06:51:46.819Z,57.24
2019-04-22T06:52:17.766Z,57.65
2019-04-22T06:52:54.519Z,57.97
2019-04-22T06:53:23.934Z,58.44
2019-04-22T06:54:00.112Z,58.45
2019-04-22T06:54:37.464Z,58.86
2019-04-22T06:55:09.680Z,59.00
2019-04-22T06:56:14.279Z,59.48
2019-04-22T06:56:42.797Z,59.82
2019-04-22T06:57:13.424Z,60.03
2019-04-22T06:57:53.550Z,60.08
2019-04-22T06:58:20.001Z,60.19
2019-04-22T06:58:52.334Z,60.45
2019-04-22T06:59:31.266Z,60.56
2019-04-22T07:00:05.599Z,61.06
2019-04-22T07:00:36.712Z,61.02
2019-04-22T07:01:17.846Z,61.03
2019-04-22T07:01:45.772Z,61.16
2019-04-22T07:02:23.864Z,61.39
2019-04-22T07:03:12.366Z,61.53
2019-04-22T07:04:29.697Z,61.99
2019-04-22T07:05:02.734Z,62.03
2019-04-22T07:06:17.436Z,62.64
2019-04-22T07:06:48.079Z,62.94
2019-04-22T07:07:14.167Z,63.24
2019-04-22T07:07:45.599Z,63.08
2019-04-22T07:09:36.915Z,60.42
2019-04-22T07:10:15.109Z,59.45
2019-04-22T07:10:45.121Z,57.61
2019-04-22T07:11:07.850Z,56.03
2019-04-22T07:11:43.187Z,55.30
2019-04-22T07:12:20.390Z,55.01
2019-04-22T07:12:49.210Z,54.64
2019-04-22T07:13:27.463Z,54.76
2019-04-22T07:14:01.668Z,54.76
2019-04-22T07:14:28.642Z,54.83
2019-04-22T07:15:03.310Z,54.94
2019-04-22T07:15:48.411Z,55.20
2019-04-22T07:16:03.982Z,55.48
2019-04-22T07:16:43.234Z,56.07
2019-04-22T07:17:22.188Z,56.17
2019-04-22T07:17:50.547Z,56.40
2019-04-22T07:18:25.054Z,56.68
2019-04-22T07:18:54.966Z,57.00
2019-04-22T07:19:28.854Z,57.25
2019-04-22T07:20:04.060Z,57.50
2019-04-22T07:20:38.286Z,57.52
2019-04-22T07:21:10.402Z,57.61
2019-04-22T07:21:46.788Z,57.81
2019-04-22T07:22:19.834Z,58.15
2019-04-22T07:22:45.572Z,58.38
2019-04-22T07:23:30.270Z,58.51
2019-04-22T07:24:02.934Z,58.64
2019-04-22T07:24:58.900Z,58.95
2019-04-22T07:25:36.394Z,58.96
2019-04-22T07:26:11.477Z,59.07
2019-04-22T07:26:39.446Z,59.28
2019-04-22T07:27:14.504Z,59.34
2019-04-22T07:27:46.017Z,59.49
2019-04-22T07:28:21.227Z,59.57
2019-04-22T07:28:56.455Z,59.57
2019-04-22T07:29:31.028Z,59.77
2019-04-22T07:30:03.972Z,59.86
2019-04-22T07:30:35.008Z,60.02
2019-04-22T07:31:06.670Z,60.16
2019-04-22T07:31:42.510Z,60.30
2019-04-22T07:32:13.122Z,60.38
2019-04-22T07:33:05.738Z,60.47
2019-04-22T07:33:55.543Z,60.76
2019-04-22T07:34:40.761Z,60.62
2019-04-22T07:35:01.148Z,60.51
2019-04-22T07:35:41.768Z,60.46
2019-04-22T07:36:31.907Z,60.56
2019-04-22T07:37:25.820Z,60.84
2019-04-22T07:37:41.568Z,61.06
2019-04-22T07:38:25.115Z,61.09
2019-04-22T07:38:42.514Z,61.18
2019-04-22T07:39:24.039Z,61.33
2019-04-22T07:39:50.330Z,61.46
2019-04-22T07:40:34.094Z,61.50
2019-04-22T07:40:59.305Z,61.67
2019-04-22T07:41:38.387Z,61.84
2019-04-22T07:42:12.450Z,62.02
2019-04-22T07:42:45.760Z,62.09
2019-04-22T07:43:21.004Z,62.16
2019-04-22T07:44:26.049Z,62.07
2019-04-22T07:45:01.109Z,62.15
2019-04-22T07:45:29.656Z,62.29
2019-04-22T07:46:05.114Z,62.40
2019-04-22T07:46:43.448Z,62.42
2019-04-22T07:47:21.832Z,62.58
2019-04-22T07:47:49.921Z,62.90
2019-04-22T07:48:26.446Z,63.35
2019-04-22T07:48:53.645Z,63.40
2019-04-22T07:49:29.288Z,62.82
2019-04-22T07:50:03.619Z,61.72
2019-04-22T07:50:43.028Z,60.68
2019-04-22T07:51:41.111Z,58.08
2019-04-22T07:52:09.847Z,56.84
2019-04-22T07:52:43.461Z,55.82
2019-04-22T07:53:10.055Z,55.19
2019-04-22T07:53:52.315Z,55.08
2019-04-22T07:54:19.771Z,55.02
2019-04-22T07:54:52.496Z,55.05
2019-04-22T07:55:27.252Z,55.05
2019-04-22T07:56:07.059Z,55.14
2019-04-22T07:56:36.530Z,55.52
2019-04-22T07:57:18.437Z,55.83
2019-04-22T07:57:44.532Z,56.15
2019-04-22T07:58:28.938Z,56.65
2019-04-22T07:58:49.920Z,56.71
2019-04-22T07:59:22.014Z,57.16
2019-04-22T08:00:02.968Z,57.31
2019-04-22T08:00:36.991Z,57.78
2019-04-22T08:01:12.350Z,57.81
2019-04-22T08:01:35.538Z,58.01
2019-04-22T08:02:16.194Z,58.38
2019-04-22T08:02:51.679Z,58.49
2019-04-22T08:03:58.732Z,58.61
2019-04-22T08:04:49.799Z,58.73
2019-04-22T08:05:05.363Z,58.93
2019-04-22T08:06:46.102Z,59.60
2019-04-22T08:07:18.166Z,59.72
2019-04-22T08:07:56.078Z,60.03
2019-04-22T08:08:51.770Z,60.07
2019-04-22T08:09:30.895Z,60.09
2019-04-22T08:10:09.157Z,60.32
2019-04-22T08:10:39.136Z,60.46
2019-04-22T08:11:21.604Z,60.49
2019-04-22T08:12:12.053Z,60.54
2019-04-22T08:13:24.802Z,60.74
2019-04-22T08:13:54.941Z,60.93
2019-04-22T08:14:30.058Z,60.90
2019-04-22T08:15:01.263Z,61.18
2019-04-22T08:15:32.880Z,61.04
2019-04-22T08:16:14.176Z,60.91
2019-04-22T08:16:45.111Z,60.93
2019-04-22T08:17:43.188Z,60.94
2019-04-22T08:17:55.108Z,60.69
2019-04-22T08:18:20.369Z,60.67
2019-04-22T08:18:54.092Z,60.58
2019-04-22T08:20:02.779Z,60.47
2019-04-22T08:20:34.014Z,60.56
2019-04-22T08:21:07.424Z,60.42
2019-04-22T08:21:38.344Z,60.69
2019-04-22T08:22:07.940Z,60.76
2019-04-22T08:22:51.040Z,60.69
2019-04-22T08:23:36.492Z,60.67
2019-04-22T08:23:51.038Z,60.50
2019-04-22T08:24:29.307Z,60.41
2019-04-22T08:25:00.338Z,60.37
2019-04-22T08:25:33.430Z,60.33
2019-04-22T08:26:03.377Z,60.32
2019-04-22T08:26:38.327Z,60.28
2019-04-22T08:27:11.888Z,60.34
2019-04-22T08:27:46.856Z,60.42
2019-04-22T08:28:24.088Z,60.40
2019-04-22T08:28:53.318Z,60.43
2019-04-22T08:29:35.476Z,60.51
2019-04-22T08:30:14.544Z,60.69
2019-04-22T08:30:35.428Z,60.77
2019-04-22T08:31:11.521Z,60.82
2019-04-22T08:31:43.302Z,61.08
2019-04-22T08:32:15.553Z,60.99
2019-04-22T08:32:48.915Z,61.09
2019-04-22T08:33:21.714Z,61.17
2019-04-22T08:34:00.544Z,61.14
2019-04-22T08:34:24.848Z,61.27
2019-04-22T08:34:56.190Z,61.37
2019-04-22T08:35:52.244Z,61.50
2019-04-22T08:36:12.031Z,61.48
2019-04-22T08:37:41.493Z,61.50
2019-04-22T08:38:14.655Z,61.69
2019-04-22T08:38:52.813Z,61.43
2019-04-22T08:39:39.096Z,61.44